Terminal Aerodrome Forecast
Issued by NWS Blacksburg, VA

Current Version | Previous Version | Graphics & Text | Print | Product List | Glossary On
Versions: 1 2 3 4 5 6 7 8 9 10 11 12 13 14
000
FTUS41 KRNK 181720
TAFBLF
TAF
KBLF 181720Z 1818/1918 VRB03KT P6SM VCTS SCT060CB
     FM182300 VRB03KT P6SM VCSH BKN060
     FM190000 VRB03KT P6SM FEW060=

USA.gov is the U.S. government's official web portal to all federal, state and local government web resources and services.